sensor_id;sensor_type;location;lat;lon;timestamp;temperature;humidity
23130;DHT22;11734;51.046;13.778;2022-08-21T06:28:38;18.50;99.90
23130;DHT22;11734;51.046;13.778;2022-08-21T09:28:38;20.70;99.90
23130;DHT22;11734;51.046;13.778;2022-08-21T09:31:19;20.90;99.90
23130;DHT22;11734;51.046;13.778;2022-08-21T09:33:49;21.00;99.90
23130;DHT22;11734;51.046;13.778;2022-08-21T09:36:27;21.30;99.90
23130;DHT22;11734;51.046;13.778;2022-08-21T09:39:31;21.10;99.90
23130;DHT22;11734;51.046;13.778;2022-08-21T09:42:09;21.10;99.90
23130;DHT22;11734;51.046;13.778;2022-08-21T09:44:40;21.20;99.90
23130;DHT22;11734;51.046;13.778;2022-08-21T09:47:11;21.10;99.90
23130;DHT22;11734;51.046;13.778;2022-08-21T09:49:41;21.30;99.90
23130;DHT22;11734;51.046;13.778;2022-08-21T09:52:41;21.40;99.90
23130;DHT22;11734;51.046;13.778;2022-08-21T09:55:38;21.30;99.90
23130;DHT22;11734;51.046;13.778;2022-08-21T09:58:35;21.30;99.90
23130;DHT22;11734;51.046;13.778;2022-08-21T10:01:06;21.40;99.90
23130;DHT22;11734;51.046;13.778;2022-08-21T10:03:39;21.50;99.90
23130;DHT22;11734;51.046;13.778;2022-08-21T10:06:08;21.60;99.90
23130;DHT22;11734;51.046;13.778;2022-08-21T10:08:40;21.60;99.90
23130;DHT22;11734;51.046;13.778;2022-08-21T10:11:11;21.50;99.90
23130;DHT22;11734;51.046;13.778;2022-08-21T10:14:13;21.40;99.90
23130;DHT22;11734;51.046;13.778;2022-08-21T10:17:20;21.30;99.90
23130;DHT22;11734;51.046;13.778;2022-08-21T10:20:08;21.30;99.90
23130;DHT22;11734;51.046;13.778;2022-08-21T10:22:52;21.20;99.90
23130;DHT22;11734;51.046;13.778;2022-08-21T10:25:42;21.20;99.90
23130;DHT22;11734;51.046;13.778;2022-08-21T10:35:06;21.70;99.90
23130;DHT22;11734;51.046;13.778;2022-08-21T10:40:35;22.10;99.90
23130;DHT22;11734;51.046;13.778;2022-08-21T10:48:43;22.10;99.90
23130;DHT22;11734;51.046;13.778;2022-08-21T10:54:23;22.10;99.90
23130;DHT22;11734;51.046;13.778;2022-08-21T10:57:40;22.00;99.90
23130;DHT22;11734;51.046;13.778;2022-08-21T11:00:16;22.20;99.90
23130;DHT22;11734;51.046;13.778;2022-08-21T11:05:46;22.20;99.90
23130;DHT22;11734;51.046;13.778;2022-08-21T11:11:47;22.60;99.90
23130;DHT22;11734;51.046;13.778;2022-08-21T11:14:55;22.60;99.90
23130;DHT22;11734;51.046;13.778;2022-08-21T11:17:37;22.90;99.90
23130;DHT22;11734;51.046;13.778;2022-08-21T11:26:41;24.10;99.90
23130;DHT22;11734;51.046;13.778;2022-08-21T11:43:45;26.10;99.90
23130;DHT22;11734;51.046;13.778;2022-08-21T11:46:52;26.20;99.90
23130;DHT22;11734;51.046;13.778;2022-08-21T11:50:10;26.50;99.90
23130;DHT22;11734;51.046;13.778;2022-08-21T11:56:19;26.60;99.90
23130;DHT22;11734;51.046;13.778;2022-08-21T11:59:03;26.70;98.50
23130;DHT22;11734;51.046;13.778;2022-08-21T12:01:40;27.20;99.90
23130;DHT22;11734;51.046;13.778;2022-08-21T12:04:34;27.50;95.90
23130;DHT22;11734;51.046;13.778;2022-08-21T12:07:16;27.20;93.20
23130;DHT22;11734;51.046;13.778;2022-08-21T12:09:56;27.50;93.10
23130;DHT22;11734;51.046;13.778;2022-08-21T12:12:33;27.80;87.00
23130;DHT22;11734;51.046;13.778;2022-08-21T12:18:05;26.60;95.20
23130;DHT22;11734;51.046;13.778;2022-08-21T12:21:24;26.10;93.80
23130;DHT22;11734;51.046;13.778;2022-08-21T12:26:54;25.60;94.30
23130;DHT22;11734;51.046;13.778;2022-08-21T12:29:33;25.50;95.10
23130;DHT22;11734;51.046;13.778;2022-08-21T12:32:22;25.60;96.60
23130;DHT22;11734;51.046;13.778;2022-08-21T12:35:06;25.70;95.70
23130;DHT22;11734;51.046;13.778;2022-08-21T12:40:43;25.70;94.00
23130;DHT22;11734;51.046;13.778;2022-08-21T12:43:27;25.80;94.90
23130;DHT22;11734;51.046;13.778;2022-08-21T12:45:57;25.70;94.30
23130;DHT22;11734;51.046;13.778;2022-08-21T12:48:35;25.50;92.50
23130;DHT22;11734;51.046;13.778;2022-08-21T12:51:26;25.10;94.70
23130;DHT22;11734;51.046;13.778;2022-08-21T12:53:59;25.10;96.40
23130;DHT22;11734;51.046;13.778;2022-08-21T12:56:29;25.10;94.20
23130;DHT22;11734;51.046;13.778;2022-08-21T12:59:11;24.90;95.60
23130;DHT22;11734;51.046;13.778;2022-08-21T13:01:49;24.90;97.70
23130;DHT22;11734;51.046;13.778;2022-08-21T13:04:22;24.80;96.10
23130;DHT22;11734;51.046;13.778;2022-08-21T13:07:08;24.70;95.10
23130;DHT22;11734;51.046;13.778;2022-08-21T13:09:52;24.70;95.00
23130;DHT22;11734;51.046;13.778;2022-08-21T13:12:22;24.70;95.50
23130;DHT22;11734;51.046;13.778;2022-08-21T13:15:00;24.60;93.30
23130;DHT22;11734;51.046;13.778;2022-08-21T13:17:41;24.60;96.10
23130;DHT22;11734;51.046;13.778;2022-08-21T13:20:22;24.60;96.90
23130;DHT22;11734;51.046;13.778;2022-08-21T13:22:51;24.60;95.40
23130;DHT22;11734;51.046;13.778;2022-08-21T13:25:20;24.30;97.70
23130;DHT22;11734;51.046;13.778;2022-08-21T13:28:09;24.20;99.70
23130;DHT22;11734;51.046;13.778;2022-08-21T13:30:45;24.20;99.90
23130;DHT22;11734;51.046;13.778;2022-08-21T13:33:25;23.80;99.90
23130;DHT22;11734;51.046;13.778;2022-08-21T13:36:05;23.40;99.90
23130;DHT22;11734;51.046;13.778;2022-08-21T13:38:39;23.40;99.90
23130;DHT22;11734;51.046;13.778;2022-08-21T13:44:04;23.70;99.90
23130;DHT22;11734;51.046;13.778;2022-08-21T13:46:47;23.80;99.90
23130;DHT22;11734;51.046;13.778;2022-08-21T13:49:19;23.80;99.90
23130;DHT22;11734;51.046;13.778;2022-08-21T13:51:50;23.90;99.90
23130;DHT22;11734;51.046;13.778;2022-08-21T13:54:34;23.60;99.90
23130;DHT22;11734;51.046;13.778;2022-08-21T13:57:14;23.70;99.90
23130;DHT22;11734;51.046;13.778;2022-08-21T13:59:46;23.70;99.90
23130;DHT22;11734;51.046;13.778;2022-08-21T14:02:21;23.80;99.90
23130;DHT22;11734;51.046;13.778;2022-08-21T14:04:59;23.90;99.90
23130;DHT22;11734;51.046;13.778;2022-08-21T14:10:05;24.10;99.90
23130;DHT22;11734;51.046;13.778;2022-08-21T14:12:43;24.20;99.90
23130;DHT22;11734;51.046;13.778;2022-08-21T14:15:16;24.20;99.90
23130;DHT22;11734;51.046;13.778;2022-08-21T14:17:48;24.30;99.90
23130;DHT22;11734;51.046;13.778;2022-08-21T14:20:32;24.40;99.90
23130;DHT22;11734;51.046;13.778;2022-08-21T14:23:01;24.30;99.90
23130;DHT22;11734;51.046;13.778;2022-08-21T14:25:41;24.20;98.80
23130;DHT22;11734;51.046;13.778;2022-08-21T14:28:19;24.10;99.10
23130;DHT22;11734;51.046;13.778;2022-08-21T14:30:54;24.00;98.40
23130;DHT22;11734;51.046;13.778;2022-08-21T14:33:31;24.10;99.10
23130;DHT22;11734;51.046;13.778;2022-08-21T14:35:59;24.00;99.40
23130;DHT22;11734;51.046;13.778;2022-08-21T14:38:28;24.00;99.90
23130;DHT22;11734;51.046;13.778;2022-08-21T14:40:59;24.00;98.60
23130;DHT22;11734;51.046;13.778;2022-08-21T14:43:31;23.90;99.80
23130;DHT22;11734;51.046;13.778;2022-08-21T14:45:58;23.80;99.90
23130;DHT22;11734;51.046;13.778;2022-08-21T14:48:27;23.80;98.40
23130;DHT22;11734;51.046;13.778;2022-08-21T14:50:54;23.80;99.90
23130;DHT22;11734;51.046;13.778;2022-08-21T14:53:26;23.90;99.90
23130;DHT22;11734;51.046;13.778;2022-08-21T14:55:53;23.80;96.50
23130;DHT22;11734;51.046;13.778;2022-08-21T14:58:42;23.80;97.30
23130;DHT22;11734;51.046;13.778;2022-08-21T15:01:13;23.90;97.30
23130;DHT22;11734;51.046;13.778;2022-08-21T15:03:41;24.00;99.20
23130;DHT22;11734;51.046;13.778;2022-08-21T15:06:09;24.10;95.10
23130;DHT22;11734;51.046;13.778;2022-08-21T15:08:37;24.10;95.10
23130;DHT22;11734;51.046;13.778;2022-08-21T15:11:05;24.20;97.40
23130;DHT22;11734;51.046;13.778;2022-08-21T15:13:56;24.30;99.30
23130;DHT22;11734;51.046;13.778;2022-08-21T15:16:29;24.30;96.90
23130;DHT22;11734;51.046;13.778;2022-08-21T15:19:00;24.20;93.90
23130;DHT22;11734;51.046;13.778;2022-08-21T15:21:27;24.10;93.50
23130;DHT22;11734;51.046;13.778;2022-08-21T15:23:54;24.20;93.90
23130;DHT22;11734;51.046;13.778;2022-08-21T15:26:22;24.20;92.70
23130;DHT22;11734;51.046;13.778;2022-08-21T15:28:50;24.20;95.10
23130;DHT22;11734;51.046;13.778;2022-08-21T15:31:17;24.10;95.80
23130;DHT22;11734;51.046;13.778;2022-08-21T15:33:44;24.10;92.40
23130;DHT22;11734;51.046;13.778;2022-08-21T15:36:12;24.10;93.80
23130;DHT22;11734;51.046;13.778;2022-08-21T15:38:39;24.20;92.70
23130;DHT22;11734;51.046;13.778;2022-08-21T15:41:06;24.30;94.00
23130;DHT22;11734;51.046;13.778;2022-08-21T15:43:41;24.30;92.80
23130;DHT22;11734;51.046;13.778;2022-08-21T15:46:14;24.30;91.30
23130;DHT22;11734;51.046;13.778;2022-08-21T15:48:43;24.30;90.90
23130;DHT22;11734;51.046;13.778;2022-08-21T15:51:14;24.30;92.60
23130;DHT22;11734;51.046;13.778;2022-08-21T15:53:43;24.40;91.50
23130;DHT22;11734;51.046;13.778;2022-08-21T15:56:32;24.30;92.10
23130;DHT22;11734;51.046;13.778;2022-08-21T15:59:05;24.30;92.80
23130;DHT22;11734;51.046;13.778;2022-08-21T16:01:36;24.20;93.10
23130;DHT22;11734;51.046;13.778;2022-08-21T16:04:18;24.10;92.30
23130;DHT22;11734;51.046;13.778;2022-08-21T16:06:51;24.00;91.40
23130;DHT22;11734;51.046;13.778;2022-08-21T16:09:27;23.90;92.20
23130;DHT22;11734;51.046;13.778;2022-08-21T16:11:54;23.80;93.10
23130;DHT22;11734;51.046;13.778;2022-08-21T16:14:22;23.70;92.70
23130;DHT22;11734;51.046;13.778;2022-08-21T16:16:49;23.40;93.10
23130;DHT22;11734;51.046;13.778;2022-08-21T16:19:16;23.20;93.40
23130;DHT22;11734;51.046;13.778;2022-08-21T16:21:43;23.00;94.60
23130;DHT22;11734;51.046;13.778;2022-08-21T16:24:11;22.80;95.10
23130;DHT22;11734;51.046;13.778;2022-08-21T16:26:38;22.60;94.50
23130;DHT22;11734;51.046;13.778;2022-08-21T16:29:06;22.50;95.30
23130;DHT22;11734;51.046;13.778;2022-08-21T16:31:34;22.30;97.10
23130;DHT22;11734;51.046;13.778;2022-08-21T16:34:02;22.20;96.40
23130;DHT22;11734;51.046;13.778;2022-08-21T16:36:29;22.20;98.30
23130;DHT22;11734;51.046;13.778;2022-08-21T16:38:58;22.10;97.20
23130;DHT22;11734;51.046;13.778;2022-08-21T16:41:30;22.10;98.10
23130;DHT22;11734;51.046;13.778;2022-08-21T16:44:00;22.00;98.70
23130;DHT22;11734;51.046;13.778;2022-08-21T16:46:33;21.90;98.90
23130;DHT22;11734;51.046;13.778;2022-08-21T16:49:02;21.90;99.90
23130;DHT22;11734;51.046;13.778;2022-08-21T16:51:30;21.90;99.20
23130;DHT22;11734;51.046;13.778;2022-08-21T16:53:57;21.80;99.90
23130;DHT22;11734;51.046;13.778;2022-08-21T16:56:25;21.80;99.90
23130;DHT22;11734;51.046;13.778;2022-08-21T16:58:54;21.70;99.90
23130;DHT22;11734;51.046;13.778;2022-08-21T17:01:25;21.70;99.90
23130;DHT22;11734;51.046;13.778;2022-08-21T17:03:55;21.60;99.90
23130;DHT22;11734;51.046;13.778;2022-08-21T17:06:23;21.50;99.90
23130;DHT22;11734;51.046;13.778;2022-08-21T17:08:55;21.40;99.90
23130;DHT22;11734;51.046;13.778;2022-08-21T17:14:11;21.40;99.90
23130;DHT22;11734;51.046;13.778;2022-08-21T17:16:45;21.30;99.90
23130;DHT22;11734;51.046;13.778;2022-08-21T17:19:16;21.20;99.90
23130;DHT22;11734;51.046;13.778;2022-08-21T17:21:44;21.20;99.90
23130;DHT22;11734;51.046;13.778;2022-08-21T17:24:11;21.20;99.90
23130;DHT22;11734;51.046;13.778;2022-08-21T17:26:42;21.10;99.90
23130;DHT22;11734;51.046;13.778;2022-08-21T17:29:11;21.10;99.90
23130;DHT22;11734;51.046;13.778;2022-08-21T17:31:42;21.00;99.90
23130;DHT22;11734;51.046;13.778;2022-08-21T17:34:10;21.00;99.90
23130;DHT22;11734;51.046;13.778;2022-08-21T17:36:38;20.90;99.90
23130;DHT22;11734;51.046;13.778;2022-08-21T17:39:05;20.90;99.90
23130;DHT22;11734;51.046;13.778;2022-08-21T17:41:33;20.80;99.90
23130;DHT22;11734;51.046;13.778;2022-08-21T17:44:05;20.80;99.90
23130;DHT22;11734;51.046;13.778;2022-08-21T17:46:36;20.70;99.90
23130;DHT22;11734;51.046;13.778;2022-08-21T17:49:05;20.70;99.90
23130;DHT22;11734;51.046;13.778;2022-08-21T17:51:34;20.60;99.90
23130;DHT22;11734;51.046;13.778;2022-08-21T17:54:01;20.60;99.90
23130;DHT22;11734;51.046;13.778;2022-08-21T17:56:31;20.50;99.90
23130;DHT22;11734;51.046;13.778;2022-08-21T17:59:03;20.50;99.90
23130;DHT22;11734;51.046;13.778;2022-08-21T18:01:34;20.40;99.90
23130;DHT22;11734;51.046;13.778;2022-08-21T18:04:05;20.40;99.90
23130;DHT22;11734;51.046;13.778;2022-08-21T18:06:33;20.30;99.90
23130;DHT22;11734;51.046;13.778;2022-08-21T18:09:00;20.30;99.90
23130;DHT22;11734;51.046;13.778;2022-08-21T18:11:28;20.20;99.90
23130;DHT22;11734;51.046;13.778;2022-08-21T18:14:00;20.20;99.90
23130;DHT22;11734;51.046;13.778;2022-08-21T18:16:34;20.10;99.90
23130;DHT22;11734;51.046;13.778;2022-08-21T18:19:09;20.00;99.90
23130;DHT22;11734;51.046;13.778;2022-08-21T18:21:41;20.00;99.90
23130;DHT22;11734;51.046;13.778;2022-08-21T18:24:08;20.00;99.90
23130;DHT22;11734;51.046;13.778;2022-08-21T18:26:36;20.00;99.90
23130;DHT22;11734;51.046;13.778;2022-08-21T18:29:07;19.90;99.90
23130;DHT22;11734;51.046;13.778;2022-08-21T18:31:39;19.80;99.90
23130;DHT22;11734;51.046;13.778;2022-08-21T18:34:12;19.70;99.90
23130;DHT22;11734;51.046;13.778;2022-08-21T18:37:01;19.70;99.90
23130;DHT22;11734;51.046;13.778;2022-08-21T18:39:30;19.60;99.90
23130;DHT22;11734;51.046;13.778;2022-08-21T18:42:07;19.50;99.90
23130;DHT22;11734;51.046;13.778;2022-08-21T18:44:37;19.60;99.90
23130;DHT22;11734;51.046;13.778;2022-08-21T18:47:14;19.50;99.90
23130;DHT22;11734;51.046;13.778;2022-08-21T18:49:54;19.50;99.90
23130;DHT22;11734;51.046;13.778;2022-08-21T18:52:22;19.30;99.90
23130;DHT22;11734;51.046;13.778;2022-08-21T18:54:54;19.30;99.90
23130;DHT22;11734;51.046;13.778;2022-08-21T18:57:24;19.20;99.90
23130;DHT22;11734;51.046;13.778;2022-08-21T18:59:54;19.10;99.90
23130;DHT22;11734;51.046;13.778;2022-08-21T19:02:24;19.10;99.90
23130;DHT22;11734;51.046;13.778;2022-08-21T19:04:51;19.00;99.90
23130;DHT22;11734;51.046;13.778;2022-08-21T19:07:19;18.90;99.90
23130;DHT22;11734;51.046;13.778;2022-08-21T19:09:49;18.80;99.90
23130;DHT22;11734;51.046;13.778;2022-08-21T19:12:39;18.80;99.90
23130;DHT22;11734;51.046;13.778;2022-08-21T19:15:13;18.70;99.90
23130;DHT22;11734;51.046;13.778;2022-08-21T19:17:48;18.60;99.90
23130;DHT22;11734;51.046;13.778;2022-08-21T19:20:24;18.50;99.90
23130;DHT22;11734;51.046;13.778;2022-08-21T19:22:53;18.50;99.90
23130;DHT22;11734;51.046;13.778;2022-08-21T19:25:23;18.50;99.90
23130;DHT22;11734;51.046;13.778;2022-08-21T19:30:59;18.30;99.90
23130;DHT22;11734;51.046;13.778;2022-08-21T19:33:39;18.30;99.90
23130;DHT22;11734;51.046;13.778;2022-08-21T19:36:10;18.20;99.90
23130;DHT22;11734;51.046;13.778;2022-08-21T19:38:38;18.20;99.90
23130;DHT22;11734;51.046;13.778;2022-08-21T19:41:10;18.20;99.90
23130;DHT22;11734;51.046;13.778;2022-08-21T19:43:44;18.10;99.90
23130;DHT22;11734;51.046;13.778;2022-08-21T19:46:31;18.10;99.90
23130;DHT22;11734;51.046;13.778;2022-08-21T19:49:02;18.10;99.90
23130;DHT22;11734;51.046;13.778;2022-08-21T19:51:33;18.00;99.90
23130;DHT22;11734;51.046;13.778;2022-08-21T19:54:01;17.90;99.90
23130;DHT22;11734;51.046;13.778;2022-08-21T19:56:30;17.90;99.90
23130;DHT22;11734;51.046;13.778;2022-08-21T19:59:00;17.90;99.90
23130;DHT22;11734;51.046;13.778;2022-08-21T20:01:33;17.90;99.90
23130;DHT22;11734;51.046;13.778;2022-08-21T20:06:28;17.80;99.90
23130;DHT22;11734;51.046;13.778;2022-08-21T20:08:55;17.80;99.90
23130;DHT22;11734;51.046;13.778;2022-08-21T20:11:29;17.70;99.90
23130;DHT22;11734;51.046;13.778;2022-08-21T20:14:00;17.70;99.90
23130;DHT22;11734;51.046;13.778;2022-08-21T20:16:29;17.60;99.90
23130;DHT22;11734;51.046;13.778;2022-08-21T20:18:57;17.50;99.90
23130;DHT22;11734;51.046;13.778;2022-08-21T20:21:25;17.50;99.90
23130;DHT22;11734;51.046;13.778;2022-08-21T20:23:53;17.40;99.90
23130;DHT22;11734;51.046;13.778;2022-08-21T20:26:21;17.30;99.90
23130;DHT22;11734;51.046;13.778;2022-08-21T20:28:49;17.30;99.90
23130;DHT22;11734;51.046;13.778;2022-08-21T20:31:17;17.30;99.90
23130;DHT22;11734;51.046;13.778;2022-08-21T20:33:48;17.30;99.90
23130;DHT22;11734;51.046;13.778;2022-08-21T20:36:17;17.30;99.90
23130;DHT22;11734;51.046;13.778;2022-08-21T20:38:46;17.30;99.90
23130;DHT22;11734;51.046;13.778;2022-08-21T20:41:15;17.30;99.90
23130;DHT22;11734;51.046;13.778;2022-08-21T20:43:47;17.20;99.90
23130;DHT22;11734;51.046;13.778;2022-08-21T20:46:19;17.20;99.90
23130;DHT22;11734;51.046;13.778;2022-08-21T20:48:49;17.10;99.90
23130;DHT22;11734;51.046;13.778;2022-08-21T21:00:19;16.70;99.90
23130;DHT22;11734;51.046;13.778;2022-08-21T21:05:57;16.60;99.90
23130;DHT22;11734;51.046;13.778;2022-08-21T21:08:33;16.50;99.90
23130;DHT22;11734;51.046;13.778;2022-08-21T21:11:17;16.50;99.90
23130;DHT22;11734;51.046;13.778;2022-08-21T21:14:07;16.60;99.90
23130;DHT22;11734;51.046;13.778;2022-08-21T21:16:45;16.60;99.90
23130;DHT22;11734;51.046;13.778;2022-08-21T21:19:50;16.60;99.90
23130;DHT22;11734;51.046;13.778;2022-08-21T21:22:26;16.60;99.90
23130;DHT22;11734;51.046;13.778;2022-08-21T21:30:23;16.60;99.90
23130;DHT22;11734;51.046;13.778;2022-08-21T21:32:57;16.50;99.90
23130;DHT22;11734;51.046;13.778;2022-08-21T21:35:28;16.50;99.90
23130;DHT22;11734;51.046;13.778;2022-08-21T21:41:29;16.50;99.90
23130;DHT22;11734;51.046;13.778;2022-08-21T21:44:23;16.50;99.90
23130;DHT22;11734;51.046;13.778;2022-08-21T22:01:47;16.10;99.90
23130;DHT22;11734;51.046;13.778;2022-08-21T22:07:38;16.00;99.90
23130;DHT22;11734;51.046;13.778;2022-08-21T22:10:48;16.00;99.90
23130;DHT22;11734;51.046;13.778;2022-08-21T22:13:37;16.00;99.90
23130;DHT22;11734;51.046;13.778;2022-08-21T22:18:43;16.00;99.90
23130;DHT22;11734;51.046;13.778;2022-08-21T22:21:43;15.90;99.90
23130;DHT22;11734;51.046;13.778;2022-08-21T22:24:25;15.90;99.90
23130;DHT22;11734;51.046;13.778;2022-08-21T22:27:21;15.90;99.90
23130;DHT22;11734;51.046;13.778;2022-08-21T22:29:58;15.90;99.90
23130;DHT22;11734;51.046;13.778;2022-08-21T22:32:42;15.90;99.90
23130;DHT22;11734;51.046;13.778;2022-08-21T22:35:16;15.80;99.90
23130;DHT22;11734;51.046;13.778;2022-08-21T22:37:55;15.80;99.90
23130;DHT22;11734;51.046;13.778;2022-08-21T22:40:34;15.80;99.90
23130;DHT22;11734;51.046;13.778;2022-08-21T22:43:09;15.80;99.90
23130;DHT22;11734;51.046;13.778;2022-08-21T22:48:27;15.90;99.90
23130;DHT22;11734;51.046;13.778;2022-08-21T22:51:30;15.70;99.90
23130;DHT22;11734;51.046;13.778;2022-08-21T22:57:00;15.50;99.90
23130;DHT22;11734;51.046;13.778;2022-08-21T22:59:34;15.50;99.90
23130;DHT22;11734;51.046;13.778;2022-08-21T23:02:18;15.40;99.90
23130;DHT22;11734;51.046;13.778;2022-08-21T23:04:49;15.50;99.90
23130;DHT22;11734;51.046;13.778;2022-08-21T23:07:32;15.50;99.90
23130;DHT22;11734;51.046;13.778;2022-08-21T23:13:23;15.50;99.90
23130;DHT22;11734;51.046;13.778;2022-08-21T23:16:09;15.50;99.90
23130;DHT22;11734;51.046;13.778;2022-08-21T23:19:15;15.50;99.90
23130;DHT22;11734;51.046;13.778;2022-08-21T23:22:31;15.50;99.90
23130;DHT22;11734;51.046;13.778;2022-08-21T23:34:16;15.40;99.90
23130;DHT22;11734;51.046;13.778;2022-08-21T23:43:55;15.20;99.90
23130;DHT22;11734;51.046;13.778;2022-08-21T23:52:43;15.20;99.90
23130;DHT22;11734;51.046;13.778;2022-08-21T23:58:51;15.20;99.90
